createdAt,value
2017-08-25T00:00:19.044Z,0
2017-08-25T00:01:16.682Z,0
2017-08-25T00:02:16.680Z,0
2017-08-25T00:03:17.029Z,0
2017-08-25T00:04:16.684Z,0
2017-08-25T00:05:18.809Z,0
2017-08-25T00:06:16.685Z,0
2017-08-25T00:07:17.012Z,0
2017-08-25T00:08:17.011Z,0
2017-08-25T00:09:16.384Z,0
2017-08-25T00:10:18.384Z,0
2017-08-25T00:11:17.037Z,0
2017-08-25T00:12:17.011Z,0
2017-08-25T00:13:17.323Z,0
2017-08-25T00:14:19.539Z,0
2017-08-25T00:15:17.964Z,0
2017-08-25T00:16:17.025Z,0
2017-08-25T00:17:16.411Z,0
2017-08-25T00:18:17.335Z,0
2017-08-25T00:19:16.716Z,0
2017-08-25T00:20:18.805Z,0
2017-08-25T00:21:17.035Z,0
2017-08-25T00:22:17.031Z,0
2017-08-25T00:23:17.346Z,0
2017-08-25T00:24:17.356Z,0
2017-08-25T00:25:18.596Z,0
2017-08-25T00:26:16.755Z,0
2017-08-25T00:27:16.437Z,0
2017-08-25T00:28:16.747Z,0
2017-08-25T00:29:17.051Z,0
2017-08-25T00:30:18.719Z,0
2017-08-25T00:31:17.057Z,0
2017-08-25T00:32:16.443Z,0
2017-08-25T00:33:17.065Z,0
2017-08-25T00:34:17.374Z,0
2017-08-25T00:35:18.706Z,0
2017-08-25T00:36:17.374Z,0
2017-08-25T00:37:17.071Z,0
2017-08-25T00:38:16.453Z,0
2017-08-25T00:39:17.079Z,0
2017-08-25T00:40:18.413Z,0
2017-08-25T00:41:17.397Z,0
2017-08-25T00:42:16.773Z,0
2017-08-25T00:43:17.098Z,0
2017-08-25T00:44:16.774Z,0
2017-08-25T00:45:19.931Z,0
2017-08-25T00:46:17.402Z,0
2017-08-25T00:47:17.089Z,0
2017-08-25T00:48:17.106Z,0
2017-08-25T00:49:17.113Z,0
2017-08-25T00:50:18.860Z,0
2017-08-25T00:51:17.102Z,0
2017-08-25T00:52:16.796Z,0
2017-08-25T00:53:16.802Z,0
2017-08-25T00:54:17.424Z,0
2017-08-25T00:55:18.969Z,0
2017-08-25T00:56:17.430Z,0
2017-08-25T00:57:16.815Z,0
2017-08-25T00:58:16.832Z,0
2017-08-25T00:59:17.438Z,0
2017-08-25T01:00:20.302Z,0
2017-08-25T01:01:17.126Z,0
2017-08-25T01:02:17.137Z,0
2017-08-25T01:03:17.456Z,0
2017-08-25T01:04:17.140Z,0
2017-08-25T01:05:18.818Z,0
2017-08-25T01:06:16.837Z,0
2017-08-25T01:07:17.145Z,0
2017-08-25T01:08:17.459Z,0
2017-08-25T01:09:17.462Z,0
2017-08-25T01:10:18.276Z,0
2017-08-25T01:11:17.153Z,0
2017-08-25T01:12:17.169Z,0
2017-08-25T01:13:17.482Z,0
2017-08-25T01:14:16.845Z,0
2017-08-25T01:15:23.645Z,0
2017-08-25T01:16:17.482Z,0
2017-08-25T01:17:16.860Z,0
2017-08-25T01:18:17.550Z,0
2017-08-25T01:19:17.481Z,0
2017-08-25T01:20:18.788Z,0
2017-08-25T01:21:17.179Z,0
2017-08-25T01:22:17.495Z,0
2017-08-25T01:23:16.876Z,0
2017-08-25T01:24:16.887Z,0
2017-08-25T01:25:18.845Z,0
2017-08-25T01:26:17.532Z,0
2017-08-25T01:27:17.493Z,0
2017-08-25T01:28:17.192Z,0
2017-08-25T01:29:17.202Z,0
2017-08-25T01:30:18.464Z,0
2017-08-25T01:31:17.219Z,0
2017-08-25T01:32:16.898Z,0
2017-08-25T01:33:17.217Z,0
2017-08-25T01:34:17.521Z,0
2017-08-25T01:35:19.342Z,0
2017-08-25T01:36:17.234Z,0
2017-08-25T01:37:16.910Z,0
2017-08-25T01:38:17.537Z,0
2017-08-25T01:39:17.224Z,0
2017-08-25T01:40:19.065Z,0
2017-08-25T01:41:17.540Z,0
2017-08-25T01:42:17.226Z,0
2017-08-25T01:43:16.919Z,0
2017-08-25T01:44:17.242Z,0
2017-08-25T01:45:19.177Z,0
2017-08-25T01:46:20.176Z,0
2017-08-25T01:47:16.931Z,0
2017-08-25T01:48:16.936Z,0
2017-08-25T01:49:17.559Z,0
2017-08-25T01:50:18.493Z,0
2017-08-25T01:51:16.937Z,0
2017-08-25T01:52:17.254Z,0
2017-08-25T01:53:17.253Z,0
2017-08-25T01:54:17.260Z,0
2017-08-25T01:55:18.609Z,0
2017-08-25T01:56:17.262Z,0
2017-08-25T01:57:17.259Z,0
2017-08-25T01:58:17.570Z,0
2017-08-25T01:59:17.258Z,0
2017-08-25T02:00:18.746Z,0
2017-08-25T02:01:16.658Z,0
2017-08-25T02:02:17.583Z,0
2017-08-25T02:03:16.961Z,0
2017-08-25T02:04:16.974Z,0
2017-08-25T02:05:19.161Z,0
2017-08-25T02:06:17.284Z,0
2017-08-25T02:07:16.985Z,0
2017-08-25T02:08:16.999Z,0
2017-08-25T02:09:17.296Z,0
2017-08-25T02:10:18.883Z,0
2017-08-25T02:11:17.311Z,0
2017-08-25T02:12:16.985Z,0
2017-08-25T02:13:17.615Z,0
2017-08-25T02:14:17.000Z,0
2017-08-25T02:15:19.472Z,0
2017-08-25T02:16:20.021Z,0
2017-08-25T02:17:16.995Z,0
2017-08-25T02:18:16.387Z,0
2017-08-25T02:19:17.647Z,0
2017-08-25T02:20:19.332Z,0
2017-08-25T02:21:17.325Z,0
2017-08-25T02:22:17.325Z,0
2017-08-25T02:23:17.636Z,0
2017-08-25T02:24:16.722Z,0
2017-08-25T02:25:18.598Z,0
2017-08-25T02:26:17.344Z,0
2017-08-25T02:27:17.329Z,0
2017-08-25T02:28:17.659Z,0
2017-08-25T02:29:17.340Z,0
2017-08-25T02:30:19.360Z,0
2017-08-25T02:31:17.338Z,0
2017-08-25T02:32:17.656Z,0
2017-08-25T02:33:17.652Z,0
2017-08-25T02:34:17.049Z,0
2017-08-25T02:35:19.108Z,0
2017-08-25T02:36:17.048Z,0
2017-08-25T02:37:17.356Z,0
2017-08-25T02:38:17.676Z,0
2017-08-25T02:39:17.669Z,0
2017-08-25T02:40:18.594Z,0
2017-08-25T02:41:17.664Z,0
2017-08-25T02:42:17.367Z,0
2017-08-25T02:43:17.364Z,0
2017-08-25T02:44:17.386Z,0
2017-08-25T02:45:18.405Z,0
2017-08-25T02:46:18.933Z,0
2017-08-25T02:47:17.681Z,0
2017-08-25T02:48:17.384Z,0
2017-08-25T02:49:17.381Z,0
2017-08-25T02:50:19.019Z,0
2017-08-25T02:51:17.080Z,0
2017-08-25T02:52:17.085Z,0
2017-08-25T02:53:17.415Z,0
2017-08-25T02:54:16.785Z,0
2017-08-25T02:55:18.492Z,0
2017-08-25T02:56:17.698Z,0
2017-08-25T02:57:17.418Z,0
2017-08-25T02:58:17.092Z,0
2017-08-25T02:59:17.405Z,0
2017-08-25T03:00:19.382Z,0
2017-08-25T03:01:17.408Z,0
2017-08-25T03:02:17.408Z,0
2017-08-25T03:03:17.403Z,0
2017-08-25T03:04:17.716Z,0
2017-08-25T03:05:18.948Z,0
2017-08-25T03:06:17.426Z,0
2017-08-25T03:07:17.414Z,0
2017-08-25T03:08:17.412Z,0
2017-08-25T03:09:17.108Z,0
2017-08-25T03:10:18.502Z,0
2017-08-25T03:11:16.803Z,0
2017-08-25T03:12:17.425Z,0
2017-08-25T03:13:17.429Z,0
2017-08-25T03:14:17.756Z,0
2017-08-25T03:15:19.017Z,0
2017-08-25T03:16:17.762Z,0
2017-08-25T03:17:17.930Z,0
2017-08-25T03:18:17.131Z,0
2017-08-25T03:19:17.758Z,0
2017-08-25T03:20:18.698Z,0
2017-08-25T03:21:17.445Z,0
2017-08-25T03:22:17.140Z,0
2017-08-25T03:23:16.828Z,0
2017-08-25T03:24:17.153Z,0
2017-08-25T03:25:18.967Z,0
2017-08-25T03:26:17.160Z,0
2017-08-25T03:27:17.459Z,0
2017-08-25T03:28:17.795Z,0
2017-08-25T03:29:17.162Z,0
2017-08-25T03:30:18.368Z,0
2017-08-25T03:31:17.802Z,0
2017-08-25T03:32:17.154Z,0
2017-08-25T03:33:17.466Z,0
2017-08-25T03:34:17.505Z,0
2017-08-25T03:35:18.520Z,0
2017-08-25T03:36:17.469Z,0
2017-08-25T03:37:17.474Z,0
2017-08-25T03:38:17.794Z,0
2017-08-25T03:39:17.483Z,0
2017-08-25T03:40:18.586Z,0
2017-08-25T03:41:17.483Z,0
2017-08-25T03:42:16.868Z,0
2017-08-25T03:43:17.794Z,0
2017-08-25T03:44:17.796Z,0
2017-08-25T03:45:19.122Z,0
2017-08-25T03:46:17.189Z,0
2017-08-25T03:47:23.408Z,0
2017-08-25T03:48:17.805Z,0
2017-08-25T03:49:17.813Z,0
2017-08-25T03:50:18.908Z,0
2017-08-25T03:51:17.507Z,0
2017-08-25T03:52:17.814Z,0
2017-08-25T03:53:17.500Z,0
2017-08-25T03:54:17.515Z,0
2017-08-25T03:55:19.142Z,0
2017-08-25T03:56:17.513Z,0
2017-08-25T03:57:17.518Z,0
2017-08-25T03:58:17.827Z,0
2017-08-25T03:59:17.819Z,0
2017-08-25T04:00:18.809Z,0
2017-08-25T04:01:17.212Z,0
2017-08-25T04:02:17.820Z,0
2017-08-25T04:03:17.572Z,0
2017-08-25T04:04:17.517Z,0
2017-08-25T04:05:19.533Z,0
2017-08-25T04:06:17.836Z,0
2017-08-25T04:07:17.217Z,0
2017-08-25T04:08:17.841Z,0
2017-08-25T04:09:17.224Z,0
2017-08-25T04:10:18.929Z,0
2017-08-25T04:11:17.223Z,0
2017-08-25T04:12:17.851Z,0
2017-08-25T04:13:17.233Z,0
2017-08-25T04:14:17.241Z,0
2017-08-25T04:15:18.722Z,0
2017-08-25T04:16:17.254Z,0
2017-08-25T04:17:17.555Z,0
2017-08-25T04:18:18.657Z,0
2017-08-25T04:19:17.548Z,0
2017-08-25T04:20:18.512Z,0
2017-08-25T04:21:17.548Z,0
2017-08-25T04:22:17.854Z,0
2017-08-25T04:23:17.545Z,0
2017-08-25T04:24:17.249Z,0
2017-08-25T04:25:19.629Z,0
2017-08-25T04:26:17.331Z,0
2017-08-25T04:27:17.871Z,0
2017-08-25T04:28:17.244Z,0
2017-08-25T04:29:17.905Z,0
2017-08-25T04:30:19.275Z,5
2017-08-25T04:31:16.952Z,5
2017-08-25T04:32:17.573Z,5
2017-08-25T04:33:17.875Z,5
2017-08-25T04:34:17.873Z,5
2017-08-25T04:35:20.213Z,5
2017-08-25T04:36:16.949Z,5
2017-08-25T04:37:17.574Z,10
2017-08-25T04:38:17.562Z,10
2017-08-25T04:39:17.259Z,10
2017-08-25T04:40:18.826Z,10
2017-08-25T04:41:17.584Z,15
2017-08-25T04:42:17.575Z,15
2017-08-25T04:43:17.877Z,15
2017-08-25T04:44:17.572Z,15
2017-08-25T04:45:18.437Z,20
2017-08-25T04:46:17.577Z,20
2017-08-25T04:47:16.978Z,20
2017-08-25T04:48:20.525Z,20
2017-08-25T04:49:17.277Z,20
2017-08-25T04:50:18.595Z,25
2017-08-25T04:51:17.581Z,25
2017-08-25T04:52:17.587Z,25
2017-08-25T04:53:17.290Z,25
2017-08-25T04:54:17.591Z,25
2017-08-25T04:55:19.699Z,25
2017-08-25T04:56:16.970Z,30
2017-08-25T04:57:17.907Z,30
2017-08-25T04:58:17.596Z,30
2017-08-25T04:59:17.910Z,35
2017-08-25T05:00:18.896Z,35
2017-08-25T05:01:17.297Z,35
2017-08-25T05:02:17.615Z,45
2017-08-25T05:03:17.909Z,40
2017-08-25T05:04:17.621Z,40
2017-08-25T05:05:19.455Z,45
2017-08-25T05:06:17.928Z,50
2017-08-25T05:07:17.918Z,60
2017-08-25T05:08:17.925Z,65
2017-08-25T05:09:17.316Z,70
2017-08-25T05:10:19.459Z,70
2017-08-25T05:11:17.619Z,70
2017-08-25T05:12:17.622Z,75
2017-08-25T05:13:17.322Z,75
2017-08-25T05:14:17.930Z,70
2017-08-25T05:15:19.877Z,65
2017-08-25T05:16:17.627Z,65
2017-08-25T05:17:17.627Z,65
2017-08-25T05:18:19.899Z,65
2017-08-25T05:19:17.633Z,65
2017-08-25T05:20:18.703Z,70
2017-08-25T05:21:18.002Z,70
2017-08-25T05:22:17.949Z,70
2017-08-25T05:23:17.662Z,75
2017-08-25T05:24:17.644Z,75
2017-08-25T05:25:19.331Z,75
2017-08-25T05:26:17.034Z,75
2017-08-25T05:27:17.339Z,80
2017-08-25T05:28:17.649Z,75
2017-08-25T05:29:17.682Z,75
2017-08-25T05:30:18.660Z,75
2017-08-25T05:31:17.038Z,80
2017-08-25T05:32:17.351Z,80
2017-08-25T05:33:17.975Z,80
2017-08-25T05:34:17.663Z,80
2017-08-25T05:35:19.344Z,80
2017-08-25T05:36:17.669Z,80
2017-08-25T05:37:17.370Z,85
2017-08-25T05:38:17.991Z,85
2017-08-25T05:39:17.056Z,85
2017-08-25T05:40:19.060Z,90
2017-08-25T05:41:17.373Z,95
2017-08-25T05:42:17.378Z,95
2017-08-25T05:43:17.692Z,95
2017-08-25T05:44:17.389Z,100
2017-08-25T05:45:19.514Z,120
2017-08-25T05:46:17.702Z,120
2017-08-25T05:47:17.390Z,135
2017-08-25T05:48:17.693Z,105
2017-08-25T05:49:18.502Z,105
2017-08-25T05:50:19.700Z,105
2017-08-25T05:51:18.018Z,105
2017-08-25T05:52:17.406Z,120
2017-08-25T05:53:17.403Z,115
2017-08-25T05:54:17.409Z,110
2017-08-25T05:55:19.555Z,130
2017-08-25T05:56:17.714Z,115
2017-08-25T05:57:17.717Z,120
2017-08-25T05:58:17.409Z,155
2017-08-25T05:59:17.114Z,165
2017-08-25T06:00:18.887Z,155
2017-08-25T06:01:17.737Z,150
2017-08-25T06:02:17.744Z,145
2017-08-25T06:03:17.744Z,145
2017-08-25T06:04:17.489Z,145
2017-08-25T06:05:19.081Z,145
2017-08-25T06:06:18.062Z,135
2017-08-25T06:07:17.450Z,140
2017-08-25T06:08:17.768Z,140
2017-08-25T06:09:17.769Z,175
2017-08-25T06:10:18.571Z,145
2017-08-25T06:11:17.763Z,150
2017-08-25T06:12:17.766Z,150
2017-08-25T06:13:17.464Z,150
2017-08-25T06:14:18.088Z,150
2017-08-25T06:15:18.754Z,155
2017-08-25T06:16:17.470Z,155
2017-08-25T06:17:17.779Z,160
2017-08-25T06:18:17.791Z,155
2017-08-25T06:19:19.531Z,165
2017-08-25T06:20:18.024Z,175
2017-08-25T06:21:18.107Z,180
2017-08-25T06:22:17.791Z,195
2017-08-25T06:23:17.799Z,200
2017-08-25T06:24:17.804Z,195
2017-08-25T06:25:19.553Z,195
2017-08-25T06:26:18.113Z,200
2017-08-25T06:27:17.810Z,210
2017-08-25T06:28:18.127Z,220
2017-08-25T06:29:18.123Z,225
2017-08-25T06:30:19.444Z,230
2017-08-25T06:31:17.520Z,230
2017-08-25T06:32:17.830Z,235
2017-08-25T06:33:18.145Z,235
2017-08-25T06:34:19.254Z,255
2017-08-25T06:35:19.077Z,255
2017-08-25T06:36:18.163Z,255
2017-08-25T06:37:18.169Z,255
2017-08-25T06:38:17.552Z,255
2017-08-25T06:39:17.863Z,255
2017-08-25T06:40:19.658Z,250
2017-08-25T06:41:17.883Z,250
2017-08-25T06:42:17.897Z,255
2017-08-25T06:43:17.284Z,270
2017-08-25T06:44:17.891Z,270
2017-08-25T06:45:19.634Z,275
2017-08-25T06:46:18.235Z,275
2017-08-25T06:47:17.920Z,280
2017-08-25T06:48:18.233Z,285
2017-08-25T06:49:17.926Z,250
2017-08-25T06:50:19.306Z,210
2017-08-25T06:51:17.311Z,295
2017-08-25T06:52:17.941Z,305
2017-08-25T06:53:17.945Z,310
2017-08-25T06:54:17.329Z,245
2017-08-25T06:55:20.002Z,310
2017-08-25T06:56:17.670Z,315
2017-08-25T06:57:18.285Z,315
2017-08-25T06:58:18.286Z,310
2017-08-25T06:59:18.297Z,310
2017-08-25T07:00:20.235Z,310
2017-08-25T07:01:18.321Z,240
2017-08-25T07:02:18.320Z,280
2017-08-25T07:03:18.322Z,225
2017-08-25T07:04:18.339Z,190
2017-08-25T07:05:19.643Z,190
2017-08-25T07:06:17.777Z,190
2017-08-25T07:07:18.051Z,190
2017-08-25T07:08:18.044Z,190
2017-08-25T07:09:18.040Z,190
2017-08-25T07:10:21.792Z,190
2017-08-25T07:11:17.745Z,190
2017-08-25T07:12:17.778Z,185
2017-08-25T07:13:18.078Z,180
2017-08-25T07:14:17.153Z,175
2017-08-25T07:15:20.353Z,200
2017-08-25T07:16:18.089Z,295
2017-08-25T07:17:18.397Z,250
2017-08-25T07:18:18.405Z,280
2017-08-25T07:19:17.794Z,185
2017-08-25T07:20:21.133Z,265
2017-08-25T07:21:18.424Z,245
2017-08-25T07:22:18.121Z,205
2017-08-25T07:23:18.126Z,295
2017-08-25T07:24:17.511Z,295
2017-08-25T07:25:19.822Z,285
2017-08-25T07:26:17.839Z,275
2017-08-25T07:27:17.839Z,260
2017-08-25T07:28:18.464Z,255
2017-08-25T07:29:18.468Z,255
2017-08-25T07:30:19.015Z,255
2017-08-25T07:31:18.187Z,255
2017-08-25T07:32:18.166Z,250
2017-08-25T07:33:17.869Z,250
2017-08-25T07:34:18.196Z,250
2017-08-25T07:35:19.701Z,250
2017-08-25T07:36:18.501Z,265
2017-08-25T07:37:17.577Z,280
2017-08-25T07:38:18.220Z,295
2017-08-25T07:39:18.517Z,295
2017-08-25T07:40:19.519Z,295
2017-08-25T07:41:17.907Z,295
2017-08-25T07:42:18.543Z,285
2017-08-25T07:43:17.626Z,220
2017-08-25T07:44:17.925Z,185
2017-08-25T07:45:20.174Z,180
2017-08-25T07:46:18.573Z,175
2017-08-25T07:47:18.576Z,180
2017-08-25T07:48:18.260Z,185
2017-08-25T07:49:17.956Z,295
2017-08-25T07:50:21.023Z,295
2017-08-25T07:51:17.969Z,300
2017-08-25T07:52:17.975Z,300
2017-08-25T07:53:18.607Z,295
2017-08-25T07:54:18.302Z,295
2017-08-25T07:55:19.363Z,290
2017-08-25T07:56:17.997Z,300
2017-08-25T07:57:18.314Z,300
2017-08-25T07:58:18.340Z,300
2017-08-25T07:59:18.338Z,305
2017-08-25T08:00:19.566Z,305
2017-08-25T08:01:18.663Z,310
2017-08-25T08:02:18.668Z,310
2017-08-25T08:03:18.358Z,310
2017-08-25T08:04:18.372Z,310
2017-08-25T08:05:19.926Z,315
2017-08-25T08:06:17.773Z,310
2017-08-25T08:07:18.074Z,310
2017-08-25T08:08:18.091Z,310
2017-08-25T08:09:18.725Z,310
2017-08-25T08:10:19.260Z,310
2017-08-25T08:11:18.416Z,310
2017-08-25T08:12:18.428Z,310
2017-08-25T08:13:17.813Z,310
2017-08-25T08:14:18.141Z,310
2017-08-25T08:15:19.967Z,310
2017-08-25T08:16:18.763Z,310
2017-08-25T08:17:18.159Z,310
2017-08-25T08:18:18.169Z,310
2017-08-25T08:19:18.166Z,310
2017-08-25T08:20:19.371Z,310
2017-08-25T08:21:25.004Z,310
2017-08-25T08:22:18.507Z,310
2017-08-25T08:23:18.816Z,310
2017-08-25T08:24:18.519Z,310
2017-08-25T08:25:19.622Z,305
2017-08-25T08:26:18.860Z,305
2017-08-25T08:27:17.923Z,305
2017-08-25T08:28:17.929Z,305
2017-08-25T08:29:18.562Z,305
2017-08-25T08:30:19.525Z,305
2017-08-25T08:31:18.293Z,305
2017-08-25T08:32:18.586Z,305
2017-08-25T08:33:18.907Z,305
2017-08-25T08:34:18.318Z,305
2017-08-25T08:35:19.952Z,300
2017-08-25T08:36:18.620Z,300
2017-08-25T08:37:18.954Z,300
2017-08-25T08:38:18.327Z,300
2017-08-25T08:39:18.345Z,300
2017-08-25T08:40:20.353Z,300
2017-08-25T08:41:18.669Z,300
2017-08-25T08:42:18.363Z,295
2017-08-25T08:43:18.997Z,295
2017-08-25T08:44:18.387Z,300
2017-08-25T08:45:20.273Z,295
2017-08-25T08:46:18.709Z,290
2017-08-25T08:47:19.017Z,290
2017-08-25T08:48:18.717Z,285
2017-08-25T08:49:18.723Z,285
2017-08-25T08:50:20.194Z,285
2017-08-25T08:51:20.498Z,285
2017-08-25T08:52:18.447Z,285
2017-08-25T08:53:18.449Z,285
2017-08-25T08:54:18.150Z,285
2017-08-25T08:55:20.009Z,285
2017-08-25T08:56:17.853Z,290
2017-08-25T08:57:18.803Z,285
2017-08-25T08:58:18.479Z,285
2017-08-25T08:59:18.489Z,285
2017-08-25T09:00:19.946Z,285
2017-08-25T09:01:19.126Z,285
2017-08-25T09:02:18.199Z,290
2017-08-25T09:03:18.844Z,290
2017-08-25T09:04:19.143Z,290
2017-08-25T09:05:20.233Z,290
2017-08-25T09:06:19.146Z,290
2017-08-25T09:07:19.152Z,290
2017-08-25T09:08:18.552Z,290
2017-08-25T09:09:18.878Z,290
2017-08-25T09:10:20.842Z,290
2017-08-25T09:11:19.191Z,290
2017-08-25T09:12:19.200Z,290
2017-08-25T09:13:18.584Z,290
2017-08-25T09:14:18.618Z,290
2017-08-25T09:15:20.252Z,290
2017-08-25T09:16:18.615Z,290
2017-08-25T09:17:18.601Z,290
2017-08-25T09:18:19.237Z,290
2017-08-25T09:19:18.928Z,290
2017-08-25T09:20:20.256Z,290
2017-08-25T09:21:18.942Z,290
2017-08-25T09:22:23.252Z,290
2017-08-25T09:23:18.640Z,295
2017-08-25T09:24:18.977Z,295
2017-08-25T09:25:20.270Z,290
2017-08-25T09:26:18.659Z,290
2017-08-25T09:27:18.969Z,290
2017-08-25T09:28:18.984Z,290
2017-08-25T09:29:18.678Z,295
2017-08-25T09:30:20.484Z,290
2017-08-25T09:31:18.998Z,290
2017-08-25T09:32:19.010Z,290
2017-08-25T09:33:18.699Z,290
2017-08-25T09:34:18.704Z,290
2017-08-25T09:35:20.074Z,285
2017-08-25T09:36:18.723Z,285
2017-08-25T09:37:19.349Z,285
2017-08-25T09:38:19.037Z,285
2017-08-25T09:39:18.429Z,285
2017-08-25T09:40:20.057Z,285
2017-08-25T09:41:18.745Z,285
2017-08-25T09:42:18.759Z,285
2017-08-25T09:43:19.377Z,285
2017-08-25T09:44:19.067Z,285
2017-08-25T09:45:19.575Z,280
2017-08-25T09:46:18.157Z,285
2017-08-25T09:47:19.427Z,280
2017-08-25T09:48:18.179Z,285
2017-08-25T09:49:18.794Z,275
2017-08-25T09:50:20.166Z,275
2017-08-25T09:51:18.802Z,280
2017-08-25T09:52:19.571Z,275
2017-08-25T09:53:19.141Z,275
2017-08-25T09:54:19.140Z,275
2017-08-25T09:55:20.391Z,270
2017-08-25T09:56:19.134Z,270
2017-08-25T09:57:19.151Z,270
2017-08-25T09:58:19.473Z,270
2017-08-25T09:59:18.851Z,265
2017-08-25T10:00:19.430Z,265
2017-08-25T10:01:19.177Z,265
2017-08-25T10:02:19.531Z,265
2017-08-25T10:03:19.510Z,265
2017-08-25T10:04:19.502Z,265
2017-08-25T10:05:20.490Z,265
2017-08-25T10:06:18.919Z,265
2017-08-25T10:07:21.113Z,265
2017-08-25T10:08:18.922Z,265
2017-08-25T10:09:19.557Z,260
2017-08-25T10:10:20.430Z,260
2017-08-25T10:11:18.951Z,260
2017-08-25T10:12:19.563Z,260
2017-08-25T10:13:19.566Z,260
2017-08-25T10:14:19.589Z,260
2017-08-25T10:15:20.172Z,260
2017-08-25T10:16:19.586Z,255
2017-08-25T10:17:18.968Z,260
2017-08-25T10:18:19.288Z,255
2017-08-25T10:19:18.986Z,255
2017-08-25T10:20:20.042Z,255
2017-08-25T10:21:19.613Z,255
2017-08-25T10:22:21.217Z,255
2017-08-25T10:23:19.015Z,255
2017-08-25T10:24:19.012Z,255
2017-08-25T10:25:20.080Z,250
2017-08-25T10:26:19.039Z,250
2017-08-25T10:27:19.344Z,250
2017-08-25T10:28:19.343Z,250
2017-08-25T10:29:18.735Z,250
2017-08-25T10:30:20.810Z,250
2017-08-25T10:31:19.049Z,250
2017-08-25T10:32:19.370Z,250
2017-08-25T10:33:18.752Z,260
2017-08-25T10:34:19.064Z,250
2017-08-25T10:35:19.950Z,255
2017-08-25T10:36:19.087Z,255
2017-08-25T10:37:19.083Z,255
2017-08-25T10:38:19.452Z,260
2017-08-25T10:39:19.719Z,255
2017-08-25T10:40:20.285Z,255
2017-08-25T10:41:19.446Z,255
2017-08-25T10:42:19.449Z,260
2017-08-25T10:43:18.809Z,260
2017-08-25T10:44:19.448Z,265
2017-08-25T10:45:20.534Z,270
2017-08-25T10:46:19.455Z,265
2017-08-25T10:47:18.534Z,210
2017-08-25T10:48:19.465Z,205
2017-08-25T10:49:19.784Z,235
2017-08-25T10:50:20.914Z,240
2017-08-25T10:51:19.478Z,230
2017-08-25T10:52:19.489Z,215
2017-08-25T10:53:20.295Z,220
2017-08-25T10:54:19.821Z,265
2017-08-25T10:55:19.958Z,265
2017-08-25T10:56:18.900Z,260
2017-08-25T10:57:19.220Z,260
2017-08-25T10:58:19.553Z,255
2017-08-25T10:59:19.850Z,250
2017-08-25T11:00:20.337Z,250
2017-08-25T11:01:19.819Z,245
2017-08-25T11:02:19.249Z,245
2017-08-25T11:03:19.879Z,240
2017-08-25T11:04:19.875Z,240
2017-08-25T11:05:20.405Z,240
2017-08-25T11:06:19.886Z,240
2017-08-25T11:07:19.277Z,240
2017-08-25T11:08:19.586Z,235
2017-08-25T11:09:19.599Z,235
2017-08-25T11:10:21.192Z,235
2017-08-25T11:11:19.309Z,240
2017-08-25T11:12:19.613Z,240
2017-08-25T11:13:19.306Z,240
2017-08-25T11:14:19.938Z,210
2017-08-25T11:15:20.108Z,185
2017-08-25T11:16:19.952Z,190
2017-08-25T11:17:19.349Z,210
2017-08-25T11:18:19.030Z,225
2017-08-25T11:19:19.354Z,240
2017-08-25T11:20:21.102Z,240
2017-08-25T11:21:19.686Z,225
2017-08-25T11:22:19.998Z,230
2017-08-25T11:23:21.168Z,270
2017-08-25T11:24:19.699Z,270
2017-08-25T11:25:21.595Z,230
2017-08-25T11:26:20.017Z,265
2017-08-25T11:27:20.014Z,230
2017-08-25T11:28:19.715Z,245
2017-08-25T11:29:19.720Z,260
2017-08-25T11:30:21.088Z,245
2017-08-25T11:31:19.740Z,250
2017-08-25T11:32:20.054Z,245
2017-08-25T11:33:19.757Z,245
2017-08-25T11:34:20.070Z,245
2017-08-25T11:35:20.398Z,235
2017-08-25T11:36:19.468Z,235
2017-08-25T11:37:19.484Z,230
2017-08-25T11:38:19.172Z,230
2017-08-25T11:39:20.105Z,225
2017-08-25T11:40:21.257Z,225
2017-08-25T11:41:19.488Z,225
2017-08-25T11:42:19.509Z,225
2017-08-25T11:43:19.510Z,225
2017-08-25T11:44:19.201Z,225
2017-08-25T11:45:20.672Z,225
2017-08-25T11:46:20.138Z,225
2017-08-25T11:47:19.540Z,225
2017-08-25T11:48:19.550Z,225
2017-08-25T11:49:19.868Z,225
2017-08-25T11:50:20.991Z,225
2017-08-25T11:51:20.174Z,230
2017-08-25T11:52:19.577Z,230
2017-08-25T11:53:21.304Z,235
2017-08-25T11:54:19.576Z,245
2017-08-25T11:55:20.866Z,240
2017-08-25T11:56:19.592Z,235
2017-08-25T11:57:20.211Z,235
2017-08-25T11:58:19.922Z,235
2017-08-25T11:59:19.919Z,235
2017-08-25T12:00:20.972Z,235
2017-08-25T12:01:19.933Z,235
2017-08-25T12:02:20.244Z,235
2017-08-25T12:03:19.652Z,230
2017-08-25T12:04:19.655Z,230
2017-08-25T12:05:21.290Z,230
2017-08-25T12:06:19.662Z,230
2017-08-25T12:07:19.973Z,225
2017-08-25T12:08:20.286Z,225
2017-08-25T12:09:19.676Z,225
2017-08-25T12:10:21.417Z,225
2017-08-25T12:11:20.015Z,225
2017-08-25T12:12:19.702Z,220
2017-08-25T12:13:20.315Z,220
2017-08-25T12:14:20.014Z,220
2017-08-25T12:15:20.878Z,220
2017-08-25T12:16:20.034Z,220
2017-08-25T12:17:20.049Z,225
2017-08-25T12:18:20.042Z,225
2017-08-25T12:19:20.357Z,235
2017-08-25T12:20:20.778Z,215
2017-08-25T12:21:20.059Z,230
2017-08-25T12:22:20.372Z,220
2017-08-25T12:23:19.455Z,230
2017-08-25T12:24:19.664Z,220
2017-08-25T12:25:21.423Z,235
2017-08-25T12:26:20.102Z,235
2017-08-25T12:27:20.102Z,235
2017-08-25T12:28:19.800Z,245
2017-08-25T12:29:20.450Z,240
2017-08-25T12:30:20.908Z,235
2017-08-25T12:31:20.124Z,235
2017-08-25T12:32:20.462Z,235
2017-08-25T12:33:19.837Z,230
2017-08-25T12:34:20.148Z,225
2017-08-25T12:35:21.028Z,225
2017-08-25T12:36:20.155Z,220
2017-08-25T12:37:19.880Z,200
2017-08-25T12:38:20.172Z,230
2017-08-25T12:39:19.575Z,225
2017-08-25T12:40:21.300Z,225
2017-08-25T12:41:19.882Z,215
2017-08-25T12:42:20.503Z,215
2017-08-25T12:43:19.897Z,215
2017-08-25T12:44:19.603Z,210
2017-08-25T12:45:21.326Z,210
2017-08-25T12:46:19.921Z,210
2017-08-25T12:47:20.535Z,205
2017-08-25T12:48:20.237Z,205
2017-08-25T12:49:19.945Z,210
2017-08-25T12:50:21.527Z,210
2017-08-25T12:51:19.963Z,210
2017-08-25T12:52:20.581Z,210
2017-08-25T12:53:19.674Z,205
2017-08-25T12:54:20.739Z,205
2017-08-25T12:55:21.529Z,200
2017-08-25T12:56:19.981Z,200
2017-08-25T12:57:20.647Z,200
2017-08-25T12:58:20.613Z,205
2017-08-25T12:59:20.626Z,205
2017-08-25T13:00:22.123Z,205
2017-08-25T13:01:20.537Z,205
2017-08-25T13:02:20.442Z,205
2017-08-25T13:03:19.883Z,205
2017-08-25T13:04:20.560Z,205
2017-08-25T13:05:22.285Z,205
2017-08-25T13:06:20.512Z,205
2017-08-25T13:07:20.239Z,205
2017-08-25T13:08:19.896Z,205
2017-08-25T13:09:21.069Z,205
2017-08-25T13:10:22.184Z,205
2017-08-25T13:11:20.392Z,210
2017-08-25T13:12:20.096Z,205
2017-08-25T13:13:20.449Z,205
2017-08-25T13:14:20.415Z,210
2017-08-25T13:15:21.597Z,205
2017-08-25T13:16:20.143Z,200
2017-08-25T13:17:20.437Z,205
2017-08-25T13:18:20.432Z,200
2017-08-25T13:19:20.453Z,200
2017-08-25T13:20:21.994Z,200
2017-08-25T13:21:20.477Z,200
2017-08-25T13:22:20.476Z,205
2017-08-25T13:23:19.865Z,205
2017-08-25T13:24:22.627Z,205
2017-08-25T13:25:20.968Z,205
2017-08-25T13:26:20.189Z,200
2017-08-25T13:27:20.831Z,180
2017-08-25T13:28:20.202Z,170
2017-08-25T13:29:20.505Z,170
2017-08-25T13:30:21.005Z,165
2017-08-25T13:31:20.215Z,180
2017-08-25T13:32:19.937Z,180
2017-08-25T13:33:20.224Z,190
2017-08-25T13:34:20.233Z,180
2017-08-25T13:35:21.261Z,180
2017-08-25T13:36:20.897Z,170
2017-08-25T13:37:19.942Z,200
2017-08-25T13:38:20.565Z,200
2017-08-25T13:39:21.375Z,200
2017-08-25T13:40:21.393Z,205
2017-08-25T13:41:20.321Z,205
2017-08-25T13:42:20.592Z,205
2017-08-25T13:43:20.294Z,215
2017-08-25T13:44:20.603Z,230
2017-08-25T13:45:21.230Z,245
2017-08-25T13:46:20.928Z,250
2017-08-25T13:47:20.334Z,255
2017-08-25T13:48:20.327Z,255
2017-08-25T13:49:20.644Z,255
2017-08-25T13:50:21.033Z,255
2017-08-25T13:51:20.962Z,255
2017-08-25T13:52:20.353Z,255
2017-08-25T13:53:20.666Z,255
2017-08-25T13:54:19.750Z,255
2017-08-25T13:55:22.044Z,255
2017-08-25T13:56:20.069Z,255
2017-08-25T13:57:20.998Z,255
2017-08-25T13:58:20.700Z,250
2017-08-25T13:59:21.018Z,250
2017-08-25T14:00:21.831Z,255
2017-08-25T14:01:21.067Z,265
2017-08-25T14:02:20.784Z,270
2017-08-25T14:03:20.129Z,270
2017-08-25T14:04:20.444Z,270
2017-08-25T14:05:23.440Z,260
2017-08-25T14:06:20.452Z,255
2017-08-25T14:07:20.771Z,250